createdAt,value
2022-10-31T00:01:36.600Z,15.12
2022-10-31T00:04:04.383Z,15.14
2022-10-31T00:06:30.984Z,15.12
2022-10-31T00:09:04.555Z,15.11
2022-10-31T00:11:33.892Z,15.09
2022-10-31T00:14:03.522Z,15.07
2022-10-31T00:16:30.919Z,15.07
2022-10-31T00:19:03.780Z,15.06
2022-10-31T00:21:32.095Z,15.04
2022-10-31T00:24:01.855Z,15.01
2022-10-31T00:26:29.788Z,15.03
2022-10-31T00:28:57.275Z,15.01
2022-10-31T00:31:23.797Z,14.99
2022-10-31T00:33:50.975Z,14.97
2022-10-31T00:36:19.322Z,14.96
2022-10-31T00:38:46.397Z,14.99
2022-10-31T00:41:16.340Z,14.94
2022-10-31T00:43:44.757Z,14.91
2022-10-31T00:46:16.415Z,14.91
2022-10-31T00:48:43.244Z,14.88
2022-10-31T00:51:13.396Z,14.88
2022-10-31T00:53:39.858Z,14.89
2022-10-31T00:56:06.903Z,14.87
2022-10-31T00:58:42.452Z,14.87
2022-10-31T01:01:12.215Z,14.88
2022-10-31T01:03:39.720Z,14.85
2022-10-31T01:06:11.144Z,14.85
2022-10-31T01:08:39.555Z,14.85
2022-10-31T01:11:18.268Z,14.86
2022-10-31T01:13:52.038Z,14.85
2022-10-31T01:16:21.832Z,14.82
2022-10-31T01:18:48.715Z,14.81
2022-10-31T01:21:21.425Z,14.79
2022-10-31T01:23:49.342Z,14.77
2022-10-31T01:26:21.512Z,14.76
2022-10-31T01:28:52.207Z,14.73
2022-10-31T01:31:22.520Z,14.70
2022-10-31T01:33:49.500Z,14.68
2022-10-31T01:36:19.584Z,14.68
2022-10-31T01:38:50.141Z,14.65
2022-10-31T01:41:25.962Z,14.66
2022-10-31T01:43:59.685Z,14.67
2022-10-31T01:46:34.067Z,14.67
2022-10-31T01:49:10.203Z,14.67
2022-10-31T01:51:53.569Z,14.67
2022-10-31T01:54:38.564Z,14.66
2022-10-31T01:57:09.097Z,14.63
2022-10-31T01:59:42.820Z,14.62
2022-10-31T02:02:09.654Z,14.59
2022-10-31T02:04:37.639Z,14.59
2022-10-31T02:07:15.720Z,14.60
2022-10-31T02:09:44.180Z,14.58
2022-10-31T02:12:11.636Z,14.57
2022-10-31T02:14:38.760Z,14.57
2022-10-31T02:17:05.524Z,14.55
2022-10-31T02:19:50.463Z,14.53
2022-10-31T02:22:22.806Z,14.51
2022-10-31T02:25:07.485Z,14.48
2022-10-31T02:27:52.180Z,14.43
2022-10-31T02:30:36.426Z,14.38
2022-10-31T02:33:16.344Z,14.33
2022-10-31T02:35:55.639Z,14.25
2022-10-31T02:38:48.311Z,14.21
2022-10-31T02:41:31.845Z,14.14
2022-10-31T02:44:08.035Z,14.07
2022-10-31T02:46:53.440Z,13.98
2022-10-31T02:49:28.680Z,13.90
2022-10-31T02:51:55.062Z,13.82
2022-10-31T02:54:27.186Z,13.70
2022-10-31T02:57:05.975Z,13.59
2022-10-31T02:59:36.028Z,13.50
2022-10-31T03:02:14.824Z,13.42
2022-10-31T03:05:03.004Z,13.35
2022-10-31T03:07:29.290Z,13.24
2022-10-31T03:10:14.026Z,13.21
2022-10-31T03:12:56.476Z,13.21
2022-10-31T03:15:37.272Z,13.17
2022-10-31T03:18:30.836Z,13.16
2022-10-31T03:21:11.483Z,13.13
2022-10-31T03:23:40.102Z,13.10
2022-10-31T03:26:09.349Z,13.03
2022-10-31T03:28:43.963Z,12.98
2022-10-31T03:31:13.295Z,12.94
2022-10-31T03:33:41.535Z,12.93
2022-10-31T03:36:10.473Z,12.91
2022-10-31T03:38:38.262Z,12.93
2022-10-31T03:41:08.651Z,12.92
2022-10-31T03:43:41.792Z,12.94
2022-10-31T03:46:08.413Z,12.92
2022-10-31T03:48:35.203Z,12.94
2022-10-31T03:51:26.912Z,12.91
2022-10-31T03:54:39.852Z,12.89
2022-10-31T03:57:15.317Z,12.85
2022-10-31T03:59:46.008Z,12.81
2022-10-31T04:02:16.900Z,12.78
2022-10-31T04:04:45.128Z,12.76
2022-10-31T04:07:13.635Z,12.74
2022-10-31T04:09:43.452Z,12.73
2022-10-31T04:12:12.413Z,12.70
2022-10-31T04:14:41.063Z,12.67
2022-10-31T04:17:11.645Z,12.64
2022-10-31T04:19:38.111Z,12.62
2022-10-31T04:22:04.537Z,12.61
2022-10-31T04:24:30.964Z,12.59
2022-10-31T04:26:57.349Z,12.55
2022-10-31T04:29:23.835Z,12.54
2022-10-31T04:31:50.232Z,12.48
2022-10-31T04:34:16.621Z,12.43
2022-10-31T04:36:42.975Z,12.39
2022-10-31T04:39:09.354Z,12.35
2022-10-31T04:41:35.802Z,12.30
2022-10-31T04:44:02.181Z,12.27
2022-10-31T04:46:28.599Z,12.23
2022-10-31T04:48:55.009Z,12.16
2022-10-31T04:51:21.451Z,12.10
2022-10-31T04:53:47.831Z,12.07
2022-10-31T04:56:14.292Z,12.03
2022-10-31T04:58:41.013Z,11.97
2022-10-31T05:01:07.594Z,11.87
2022-10-31T05:03:34.059Z,11.85
2022-10-31T05:06:00.484Z,11.84
2022-10-31T05:08:26.859Z,11.80
2022-10-31T05:10:53.348Z,11.76
2022-10-31T05:15:51.173Z,11.64
2022-10-31T05:18:18.122Z,11.58
2022-10-31T05:20:44.518Z,11.58
2022-10-31T05:23:10.958Z,11.56
2022-10-31T05:25:37.328Z,11.58
2022-10-31T05:28:04.554Z,11.57
2022-10-31T05:30:32.514Z,11.57
2022-10-31T05:32:59.985Z,11.56
2022-10-31T05:35:32.861Z,11.54
2022-10-31T05:38:00.140Z,11.51
2022-10-31T05:40:28.095Z,11.52
2022-10-31T05:42:56.122Z,11.54
2022-10-31T05:45:23.316Z,11.57
2022-10-31T05:47:58.413Z,11.60
2022-10-31T05:50:26.616Z,11.61
2022-10-31T05:52:58.773Z,11.63
2022-10-31T05:55:26.520Z,11.64
2022-10-31T05:57:54.390Z,11.65
2022-10-31T06:00:21.790Z,11.63
2022-10-31T06:02:48.759Z,11.57
2022-10-31T06:05:15.530Z,11.54
2022-10-31T06:07:42.012Z,11.50
2022-10-31T06:10:09.668Z,11.42
2022-10-31T06:12:38.475Z,11.26
2022-10-31T06:15:06.605Z,11.19
2022-10-31T06:17:34.341Z,10.98
2022-10-31T06:20:00.791Z,10.97
2022-10-31T06:22:27.550Z,10.96
2022-10-31T06:24:53.954Z,10.89
2022-10-31T06:27:20.559Z,10.88
2022-10-31T06:29:47.106Z,10.87
2022-10-31T06:32:14.074Z,10.83
2022-10-31T06:34:41.864Z,10.83
2022-10-31T06:37:10.017Z,10.80
2022-10-31T06:39:36.779Z,10.76
2022-10-31T06:42:04.316Z,10.71
2022-10-31T06:44:31.237Z,10.56
2022-10-31T06:46:57.702Z,10.60
2022-10-31T06:49:24.141Z,10.57
2022-10-31T06:51:51.194Z,10.54
2022-10-31T06:54:18.064Z,10.52
2022-10-31T06:56:47.586Z,10.50
2022-10-31T06:59:14.786Z,10.53
2022-10-31T07:01:41.292Z,10.56
2022-10-31T07:04:10.448Z,10.59
2022-10-31T07:06:36.856Z,10.63
2022-10-31T07:09:03.465Z,10.66
2022-10-31T07:11:29.907Z,10.68
2022-10-31T07:13:56.964Z,10.71
2022-10-31T07:16:23.394Z,10.76
2022-10-31T07:18:49.986Z,10.87
2022-10-31T07:21:16.411Z,10.96
2022-10-31T07:23:42.803Z,11.08
2022-10-31T07:26:10.937Z,11.17
2022-10-31T07:28:37.349Z,11.24
2022-10-31T07:31:03.716Z,11.24
2022-10-31T07:33:30.083Z,11.27
2022-10-31T07:35:56.486Z,11.28
2022-10-31T07:38:22.880Z,11.26
2022-10-31T07:40:56.201Z,11.27
2022-10-31T07:43:23.564Z,11.25
2022-10-31T07:45:51.932Z,11.27
2022-10-31T07:48:18.513Z,11.39
2022-10-31T07:50:45.541Z,11.47
2022-10-31T07:53:13.532Z,11.54
2022-10-31T07:55:40.717Z,11.61
2022-10-31T07:58:12.997Z,11.66
2022-10-31T08:00:42.491Z,11.75
2022-10-31T08:03:14.426Z,11.81
2022-10-31T08:05:47.010Z,11.81
2022-10-31T08:08:17.748Z,11.87
2022-10-31T08:10:44.771Z,11.90
2022-10-31T08:13:16.265Z,11.94
2022-10-31T08:15:43.093Z,11.99
2022-10-31T08:18:14.268Z,12.01
2022-10-31T08:20:41.826Z,12.09
2022-10-31T08:23:09.493Z,12.16
2022-10-31T08:25:38.645Z,12.17
2022-10-31T08:28:07.077Z,12.27
2022-10-31T08:30:35.608Z,12.41
2022-10-31T08:33:06.862Z,12.49
2022-10-31T08:35:34.256Z,12.61
2022-10-31T08:38:01.185Z,12.73
2022-10-31T08:40:30.267Z,12.88
2022-10-31T08:43:07.975Z,13.05
2022-10-31T08:45:35.171Z,13.12
2022-10-31T08:48:07.739Z,13.20
2022-10-31T08:50:36.471Z,13.29
2022-10-31T08:53:06.293Z,13.40
2022-10-31T08:55:36.229Z,13.56
2022-10-31T08:58:07.729Z,13.79
2022-10-31T09:00:35.635Z,14.07
2022-10-31T09:03:06.000Z,14.35
2022-10-31T09:05:33.330Z,14.68
2022-10-31T09:08:01.638Z,14.93
2022-10-31T09:10:29.964Z,15.13
2022-10-31T09:13:07.464Z,15.45
2022-10-31T09:15:39.557Z,15.80
2022-10-31T09:18:07.472Z,16.01
2022-10-31T09:20:38.097Z,16.21
2022-10-31T09:23:07.150Z,16.30
2022-10-31T09:25:35.266Z,16.56
2022-10-31T09:28:03.583Z,16.74
2022-10-31T09:30:32.976Z,16.86
2022-10-31T09:33:04.601Z,16.89
2022-10-31T09:35:31.177Z,16.91
2022-10-31T09:38:06.350Z,17.00
2022-10-31T09:40:46.921Z,17.04
2022-10-31T09:43:38.176Z,17.13
2022-10-31T09:46:23.292Z,17.23
2022-10-31T09:49:04.641Z,17.21
2022-10-31T09:51:36.387Z,17.25
2022-10-31T09:54:21.110Z,17.23
2022-10-31T09:56:47.898Z,17.28
2022-10-31T09:59:25.243Z,17.43
2022-10-31T10:01:56.904Z,17.57
2022-10-31T10:04:45.104Z,17.64
2022-10-31T10:07:23.656Z,17.71
2022-10-31T10:09:50.214Z,17.76
2022-10-31T10:12:29.674Z,17.94
2022-10-31T10:15:20.826Z,18.17
2022-10-31T10:18:01.582Z,18.22
2022-10-31T10:20:30.721Z,18.23
2022-10-31T10:23:24.826Z,18.01
2022-10-31T10:26:06.100Z,17.93
2022-10-31T10:28:39.535Z,18.07
2022-10-31T10:31:20.357Z,17.95
2022-10-31T10:34:02.641Z,17.87
2022-10-31T10:36:37.517Z,17.79
2022-10-31T10:39:30.567Z,17.73
2022-10-31T10:42:18.745Z,17.74
2022-10-31T10:45:06.768Z,17.57
2022-10-31T10:47:55.827Z,17.69
2022-10-31T10:50:35.274Z,17.73
2022-10-31T10:53:22.321Z,17.71
2022-10-31T10:55:59.323Z,17.81
2022-10-31T10:58:25.745Z,17.90
2022-10-31T11:00:54.333Z,17.94
2022-10-31T11:03:20.821Z,18.01
2022-10-31T11:05:55.525Z,18.10
2022-10-31T11:08:32.961Z,18.12
2022-10-31T11:11:31.439Z,18.13
2022-10-31T11:14:05.725Z,18.35
2022-10-31T11:16:45.620Z,18.47
2022-10-31T11:19:18.697Z,18.47
2022-10-31T11:21:51.254Z,18.35
2022-10-31T11:24:28.845Z,18.32
2022-10-31T11:27:14.419Z,18.31
2022-10-31T11:29:40.856Z,18.18
2022-10-31T11:32:19.981Z,18.05
2022-10-31T11:34:50.153Z,18.01
2022-10-31T11:37:22.659Z,17.97
2022-10-31T11:39:54.628Z,17.96
2022-10-31T11:42:23.934Z,17.98
2022-10-31T11:44:52.401Z,17.95
2022-10-31T11:47:25.320Z,18.01
2022-10-31T11:49:51.951Z,18.02
2022-10-31T11:52:22.796Z,18.10
2022-10-31T11:55:13.903Z,18.03
2022-10-31T11:57:53.034Z,17.94
2022-10-31T12:00:24.473Z,17.91
2022-10-31T12:02:52.134Z,17.84
2022-10-31T12:05:33.675Z,17.88
2022-10-31T12:08:04.779Z,17.84
2022-10-31T12:11:00.149Z,17.66
2022-10-31T12:13:35.629Z,17.90
2022-10-31T12:16:13.457Z,18.10
2022-10-31T12:19:02.168Z,18.22
2022-10-31T12:22:03.961Z,18.25
2022-10-31T12:24:58.840Z,18.18
2022-10-31T12:27:52.846Z,18.15
2022-10-31T12:30:22.550Z,18.11
2022-10-31T12:33:07.516Z,18.15
2022-10-31T12:35:52.874Z,18.27
2022-10-31T12:38:42.245Z,18.38
2022-10-31T12:41:26.521Z,18.49
2022-10-31T12:44:34.788Z,18.48
2022-10-31T12:47:09.324Z,18.51
2022-10-31T12:49:46.385Z,18.44
2022-10-31T12:52:26.351Z,18.53
2022-10-31T12:55:09.230Z,18.56
2022-10-31T12:57:48.145Z,18.52
2022-10-31T13:00:17.764Z,18.56
2022-10-31T13:02:57.895Z,18.62
2022-10-31T13:05:32.807Z,18.54
2022-10-31T13:08:05.090Z,18.55
2022-10-31T13:10:37.589Z,18.62
2022-10-31T13:13:15.559Z,18.70
2022-10-31T13:16:10.031Z,18.63
2022-10-31T13:18:44.188Z,18.61
2022-10-31T13:21:34.109Z,18.57
2022-10-31T13:24:05.752Z,18.64
2022-10-31T13:26:38.807Z,18.63
2022-10-31T13:29:21.052Z,18.54
2022-10-31T13:31:47.571Z,18.57
2022-10-31T13:34:48.590Z,18.38
2022-10-31T13:37:41.080Z,18.43
2022-10-31T13:40:16.366Z,18.49
2022-10-31T13:43:13.225Z,18.45
2022-10-31T13:45:50.483Z,18.50
2022-10-31T13:48:16.840Z,18.43
2022-10-31T13:50:55.704Z,18.50
2022-10-31T13:53:23.661Z,18.46
2022-10-31T13:56:10.256Z,18.52
2022-10-31T13:58:37.529Z,18.51
2022-10-31T14:01:04.011Z,18.62
2022-10-31T14:04:02.117Z,18.54
2022-10-31T14:06:18.169Z,18.59
2022-10-31T14:08:52.177Z,18.57
2022-10-31T14:11:32.856Z,18.65
2022-10-31T14:14:02.994Z,18.60
2022-10-31T14:16:33.194Z,18.50
2022-10-31T14:19:09.542Z,18.48
2022-10-31T14:21:42.133Z,18.49
2022-10-31T14:24:23.919Z,18.41
2022-10-31T14:26:57.607Z,18.42
2022-10-31T14:29:27.348Z,18.47
2022-10-31T14:32:11.613Z,18.48
2022-10-31T14:34:42.072Z,18.44
2022-10-31T14:37:27.322Z,18.33
2022-10-31T14:40:17.647Z,18.37
2022-10-31T14:43:21.493Z,18.35
2022-10-31T14:46:07.209Z,18.13
2022-10-31T14:48:42.774Z,18.16
2022-10-31T14:51:22.859Z,18.14
2022-10-31T14:53:50.642Z,18.15
2022-10-31T14:56:24.207Z,18.08
2022-10-31T14:58:50.948Z,18.06
2022-10-31T15:01:24.132Z,18.07
2022-10-31T15:04:10.517Z,18.01
2022-10-31T15:06:45.527Z,17.95
2022-10-31T15:09:26.582Z,17.84
2022-10-31T15:11:53.092Z,17.79
2022-10-31T15:14:30.361Z,17.79
2022-10-31T15:16:59.517Z,17.73
2022-10-31T15:19:28.667Z,17.63
2022-10-31T15:21:57.534Z,17.56
2022-10-31T15:24:35.373Z,17.56
2022-10-31T15:27:04.942Z,17.48
2022-10-31T15:29:32.730Z,17.38
2022-10-31T15:32:02.967Z,17.47
2022-10-31T15:34:40.714Z,17.45
2022-10-31T15:37:12.637Z,17.50
2022-10-31T15:39:39.083Z,17.36
2022-10-31T15:42:05.706Z,17.36
2022-10-31T15:44:36.672Z,17.36
2022-10-31T15:47:06.224Z,17.37
2022-10-31T15:49:36.747Z,17.29
2022-10-31T15:52:18.021Z,17.31
2022-10-31T15:54:49.748Z,17.24
2022-10-31T15:57:16.481Z,17.21
2022-10-31T15:59:47.298Z,17.09
2022-10-31T16:02:15.868Z,16.93
2022-10-31T16:04:51.330Z,16.84
2022-10-31T16:07:23.292Z,16.98
2022-10-31T16:09:59.221Z,16.98
2022-10-31T16:12:36.359Z,17.03
2022-10-31T16:15:04.855Z,17.00
2022-10-31T16:17:34.428Z,17.00
2022-10-31T16:20:04.729Z,16.89
2022-10-31T16:22:35.203Z,16.86
2022-10-31T16:25:14.857Z,16.89
2022-10-31T16:27:51.704Z,16.90
2022-10-31T16:30:38.789Z,16.90
2022-10-31T16:33:06.994Z,16.84
2022-10-31T16:35:37.042Z,16.75
2022-10-31T16:38:04.246Z,16.72
2022-10-31T16:40:31.147Z,16.73
2022-10-31T16:43:01.993Z,16.75
2022-10-31T16:45:31.204Z,16.70
2022-10-31T16:48:12.214Z,16.70
2022-10-31T16:50:39.290Z,16.80
2022-10-31T16:53:13.830Z,16.81
2022-10-31T16:55:55.764Z,16.76
2022-10-31T16:58:28.289Z,16.76
2022-10-31T17:00:55.184Z,16.73
2022-10-31T17:03:21.692Z,16.71
2022-10-31T17:05:48.616Z,16.70
2022-10-31T17:08:15.123Z,16.64
2022-10-31T17:10:43.809Z,16.57
2022-10-31T17:13:17.800Z,16.60
2022-10-31T17:15:51.378Z,16.55
2022-10-31T17:18:21.563Z,16.56
2022-10-31T17:20:51.435Z,16.58
2022-10-31T17:23:18.130Z,16.57
2022-10-31T17:25:44.553Z,16.59
2022-10-31T17:28:14.683Z,16.53
2022-10-31T17:30:42.486Z,16.56
2022-10-31T17:33:16.871Z,16.52
2022-10-31T17:35:44.825Z,16.52
2022-10-31T17:38:11.991Z,16.47
2022-10-31T17:40:40.204Z,16.48
2022-10-31T17:43:06.563Z,16.30
2022-10-31T17:45:33.072Z,16.37
2022-10-31T17:47:59.541Z,16.37
2022-10-31T17:50:27.019Z,16.32
2022-10-31T17:52:53.770Z,16.30
2022-10-31T17:55:20.722Z,16.31
2022-10-31T17:57:47.161Z,16.39
2022-10-31T18:00:20.941Z,16.35
2022-10-31T18:02:47.344Z,16.40
2022-10-31T18:05:13.999Z,16.38
2022-10-31T18:07:40.669Z,16.42
2022-10-31T18:10:07.695Z,16.43
2022-10-31T18:12:36.333Z,16.36
2022-10-31T18:15:02.953Z,16.37
2022-10-31T18:17:29.464Z,16.33
2022-10-31T18:19:55.932Z,16.33
2022-10-31T18:22:22.344Z,16.32
2022-10-31T18:24:48.764Z,16.27
2022-10-31T18:27:15.459Z,16.25
2022-10-31T18:29:42.018Z,16.22
2022-10-31T18:32:09.884Z,16.23
2022-10-31T18:34:36.664Z,16.23
2022-10-31T18:37:03.508Z,16.22
2022-10-31T18:39:30.145Z,16.17
2022-10-31T18:41:56.835Z,16.20
2022-10-31T18:44:23.295Z,16.17
2022-10-31T18:46:49.748Z,16.19
2022-10-31T18:49:22.273Z,16.14
2022-10-31T18:51:50.768Z,16.06
2022-10-31T18:54:17.877Z,15.98
2022-10-31T18:56:44.853Z,16.06
2022-10-31T18:59:11.903Z,16.02
2022-10-31T19:01:38.765Z,15.98
2022-10-31T19:04:05.585Z,15.94
2022-10-31T19:06:32.050Z,15.88
2022-10-31T19:09:01.020Z,15.77
2022-10-31T19:11:27.678Z,15.83
2022-10-31T19:13:54.110Z,15.77
2022-10-31T19:16:20.587Z,15.75
2022-10-31T19:18:47.056Z,15.70
2022-10-31T19:21:16.901Z,15.65
2022-10-31T19:23:45.032Z,15.70
2022-10-31T19:26:12.169Z,15.73
2022-10-31T19:28:40.693Z,15.35
2022-10-31T19:31:08.272Z,15.34
2022-10-31T19:33:37.888Z,15.33
2022-10-31T19:36:08.301Z,15.39
2022-10-31T19:38:36.679Z,15.34
2022-10-31T19:41:13.103Z,15.26
2022-10-31T19:43:39.993Z,15.23
2022-10-31T19:46:09.033Z,15.27
2022-10-31T19:48:38.470Z,15.47
2022-10-31T19:51:07.830Z,15.67
2022-10-31T19:53:35.004Z,15.58
2022-10-31T19:56:01.982Z,15.43
2022-10-31T19:58:29.478Z,15.42
2022-10-31T20:03:30.038Z,15.37
2022-10-31T20:05:56.412Z,15.35
2022-10-31T20:08:22.945Z,15.39
2022-10-31T20:10:57.499Z,15.31
2022-10-31T20:13:24.915Z,15.33
2022-10-31T20:15:52.259Z,15.31
2022-10-31T20:18:18.884Z,15.24
2022-10-31T20:20:45.388Z,15.28
2022-10-31T20:23:11.777Z,15.29
2022-10-31T20:25:38.191Z,15.33
2022-10-31T20:28:04.817Z,15.27
2022-10-31T20:30:31.978Z,15.31
2022-10-31T20:32:58.424Z,15.34
2022-10-31T20:35:24.806Z,15.28
2022-10-31T20:37:51.171Z,15.35
2022-10-31T20:40:17.569Z,15.38
2022-10-31T20:42:44.146Z,15.34
2022-10-31T20:45:10.965Z,15.36
2022-10-31T20:47:37.407Z,15.52
2022-10-31T20:50:17.717Z,15.59
2022-10-31T20:52:44.505Z,15.55
2022-10-31T20:55:10.927Z,15.64
2022-10-31T20:57:37.320Z,15.43
2022-10-31T21:00:05.044Z,15.37
2022-10-31T21:02:32.173Z,15.32
2022-10-31T21:04:59.221Z,15.61
2022-10-31T21:07:25.910Z,15.68
2022-10-31T21:09:52.444Z,15.64
2022-10-31T21:12:19.278Z,15.58
2022-10-31T21:14:48.643Z,15.67
2022-10-31T21:17:15.021Z,15.59
2022-10-31T21:19:41.433Z,15.62
2022-10-31T21:22:10.591Z,15.54
2022-10-31T21:24:37.014Z,15.56
2022-10-31T21:27:06.269Z,15.58
2022-10-31T21:29:35.019Z,15.59
2022-10-31T21:32:01.425Z,15.61
2022-10-31T21:34:27.798Z,15.62
2022-10-31T21:36:54.190Z,15.62
2022-10-31T21:39:20.793Z,15.57
2022-10-31T21:41:47.317Z,15.62
2022-10-31T21:44:13.758Z,15.67
2022-10-31T21:46:40.246Z,15.69
2022-10-31T21:49:06.806Z,15.73
2022-10-31T21:51:36.555Z,15.72
2022-10-31T21:54:22.426Z,15.69
2022-10-31T21:56:49.388Z,15.71
2022-10-31T21:59:15.860Z,15.72
2022-10-31T22:01:42.358Z,15.75
2022-10-31T22:04:09.137Z,15.73
2022-10-31T22:06:36.282Z,15.70
2022-10-31T22:09:05.673Z,15.71
2022-10-31T22:11:33.299Z,15.75
2022-10-31T22:14:00.881Z,15.72
2022-10-31T22:16:29.324Z,15.76
2022-10-31T22:18:58.957Z,15.77
2022-10-31T22:21:28.348Z,15.73
2022-10-31T22:24:02.047Z,15.76
2022-10-31T22:26:32.328Z,15.69
2022-10-31T22:29:02.224Z,15.71
2022-10-31T22:31:30.502Z,15.78
2022-10-31T22:33:57.412Z,15.73
2022-10-31T22:36:26.182Z,15.71
2022-10-31T22:38:52.956Z,15.77
2022-10-31T22:41:24.437Z,15.76
2022-10-31T22:43:51.277Z,15.76
2022-10-31T22:46:23.344Z,15.72
2022-10-31T22:48:53.893Z,15.75
2022-10-31T22:51:23.425Z,15.82
2022-10-31T22:53:50.809Z,15.75
2022-10-31T22:56:20.138Z,15.76
2022-10-31T22:58:47.509Z,15.76
2022-10-31T23:01:20.354Z,15.72
2022-10-31T23:03:47.645Z,15.65
2022-10-31T23:06:18.202Z,15.69
2022-10-31T23:08:46.035Z,15.68
2022-10-31T23:11:26.620Z,15.71
2022-10-31T23:14:09.476Z,15.58
2022-10-31T23:16:53.373Z,15.54
2022-10-31T23:19:25.229Z,15.53
2022-10-31T23:21:55.203Z,15.51
2022-10-31T23:24:32.705Z,15.55
2022-10-31T23:27:10.193Z,15.50
2022-10-31T23:29:43.751Z,15.52
2022-10-31T23:32:14.983Z,15.56
2022-10-31T23:34:41.689Z,15.59
2022-10-31T23:37:08.847Z,15.61
2022-10-31T23:39:36.526Z,15.37
2022-10-31T23:42:07.393Z,15.33
2022-10-31T23:44:34.595Z,15.34
2022-10-31T23:47:02.964Z,15.39
2022-10-31T23:49:30.063Z,15.39
2022-10-31T23:51:58.237Z,15.38
2022-10-31T23:54:26.036Z,15.37
2022-10-31T23:56:53.581Z,15.39
2022-10-31T23:59:23.322Z,15.40
